• Join FlightAware (Why Join?)
  • Login
  • US Flag 
03:18PM EDT


 

Airport Tracker/Info


-or-


 

Live Flight TrackerFlight Track Log ✈ N2509W ✈ 14-Nov-2013 ✈ KMFD - KCAK

Flight Track Log - Related Links

Times and Time Zones

All times are in EST time to prevent confusion due to time zone crossing. See the N2509W flight status page for this flight to view local times or setup timezone preferences in your user account.

Time Position Orientation Groundspeed Altitude Reporting Facility
EST Latitude Longitude Course Direction KTS MPH feet Rate Location/Type
05:44PM 40.7189 -82.7022 84° East 204 235 7,500  Level Cleveland Center
05:45PM 40.8474 -82.2302 90° East  Level Estimated
05:45PM 40.7317 -82.6281 77° East 206 237 7,500  Level Cleveland Center
05:46PM 40.8497 -82.1822 86° East  Level FlightAware Approximate
05:46PM 40.7425 -82.5547 79° East 203 234 7,500  Level Cleveland Center
05:47PM 40.8520 -82.1342 86° East  Level FlightAware Approximate
05:47PM 40.7561 -82.4675 78° East 205 236 7,500  Level Cleveland Center
05:48PM 40.8565 -82.0864 78° East  Level Estimated
05:48PM 40.7678 -82.3944 78° East 203 234 7,400  Level Cleveland Center
05:49PM 40.8601 -82.0386 84° East  Level FlightAware Approximate
05:49PM 40.7800 -82.3169 78° East 214 246 7,000  Level Cleveland Center
05:50PM 40.7928 -82.2369 78° East 219 252 6,500 -540 Descending Cleveland Center
05:51PM 40.8053 -82.1583 78° East 219 252 6,000 -540 Descending Cleveland Center
05:52PM 40.8167 -82.0822 79° East 213 245 5,500 -540 Descending Cleveland Center
05:53PM 40.8289 -82.0047 78° East 214 246 5,000 -540 Descending Cleveland Center
05:54PM 40.8428 -81.9156 78° East 212 244 4,400 -540 Descending Cleveland Center
05:55PM 40.8544 -81.8397 78° East 211 243 3,900 -540 Descending Cleveland Center
05:56PM 40.8669 -81.7636 78° East 211 243 3,400 -480 Descending Cleveland Center
05:57PM 40.8908 -81.6919 66° East 214 246 2,900 -420 Descending Cleveland Center
05:58PM 40.9175 -81.6275 61° Northeast 206 237 2,600 -180 Descending Cleveland Center
06:00PM 40.9428 -81.5686 60° Northeast 195 224 2,600  Level Cleveland Center
06:01PM 40.9692 -81.5058 61° Northeast 177 204 2,600 -120 Level Cleveland Center
06:02PM 40.9767 -81.4508 80° East 167 192 2,400 -420 Descending Cleveland Center
06:03PM 40.9558 -81.4375 154° Southeast 116 133 1,800 -420 Descending Cleveland Center
06:04PM 40.9383 -81.4389 183° South 80 92 1,600 -240 Descending Cleveland Center
06:05PM 40.9189 -81.4392 181° South 73 84 1,400 -240 Descending Cleveland Center